sensor_id;sensor_type;location;lat;lon;timestamp;temperature;humidity
55064;DHT22;40963;52.168;21.296;2023-04-29T00:00:05;5.50;90.30
55064;DHT22;40963;52.168;21.296;2023-04-29T00:02:31;5.50;90.30
55064;DHT22;40963;52.168;21.296;2023-04-29T00:04:57;5.50;90.50
55064;DHT22;40963;52.168;21.296;2023-04-29T00:07:22;5.50;90.70
55064;DHT22;40963;52.168;21.296;2023-04-29T00:09:48;5.50;90.80
55064;DHT22;40963;52.168;21.296;2023-04-29T00:12:14;5.50;90.90
55064;DHT22;40963;52.168;21.296;2023-04-29T00:14:39;5.50;90.90
55064;DHT22;40963;52.168;21.296;2023-04-29T00:17:07;5.50;91.00
55064;DHT22;40963;52.168;21.296;2023-04-29T00:19:33;5.50;91.20
55064;DHT22;40963;52.168;21.296;2023-04-29T00:21:59;5.50;91.40
55064;DHT22;40963;52.168;21.296;2023-04-29T00:24:25;5.50;91.40
55064;DHT22;40963;52.168;21.296;2023-04-29T00:26:51;5.50;91.40
55064;DHT22;40963;52.168;21.296;2023-04-29T00:29:17;5.50;91.50
55064;DHT22;40963;52.168;21.296;2023-04-29T00:31:43;5.50;91.50
55064;DHT22;40963;52.168;21.296;2023-04-29T00:34:09;5.50;91.60
55064;DHT22;40963;52.168;21.296;2023-04-29T00:36:35;5.40;91.60
55064;DHT22;40963;52.168;21.296;2023-04-29T00:39:00;5.40;91.70
55064;DHT22;40963;52.168;21.296;2023-04-29T00:41:26;5.40;91.80
55064;DHT22;40963;52.168;21.296;2023-04-29T00:43:51;5.40;91.90
55064;DHT22;40963;52.168;21.296;2023-04-29T00:46:17;5.40;92.00
55064;DHT22;40963;52.168;21.296;2023-04-29T00:48:43;5.40;92.10
55064;DHT22;40963;52.168;21.296;2023-04-29T00:51:09;5.40;92.20
55064;DHT22;40963;52.168;21.296;2023-04-29T00:53:35;5.40;92.40
55064;DHT22;40963;52.168;21.296;2023-04-29T00:56:01;5.40;92.50
55064;DHT22;40963;52.168;21.296;2023-04-29T00:58:29;5.40;92.70
55064;DHT22;40963;52.168;21.296;2023-04-29T01:01:01;5.40;92.80
55064;DHT22;40963;52.168;21.296;2023-04-29T01:03:29;5.40;92.90
55064;DHT22;40963;52.168;21.296;2023-04-29T01:06:12;5.40;93.00
55064;DHT22;40963;52.168;21.296;2023-04-29T01:08:45;5.40;93.00
55064;DHT22;40963;52.168;21.296;2023-04-29T01:11:18;5.40;93.00
55064;DHT22;40963;52.168;21.296;2023-04-29T01:13:56;5.40;93.10
55064;DHT22;40963;52.168;21.296;2023-04-29T01:18:57;5.40;93.10
55064;DHT22;40963;52.168;21.296;2023-04-29T01:21:24;5.40;93.20
55064;DHT22;40963;52.168;21.296;2023-04-29T01:23:50;5.40;93.30
55064;DHT22;40963;52.168;21.296;2023-04-29T01:26:21;5.40;93.40
55064;DHT22;40963;52.168;21.296;2023-04-29T01:29:14;5.40;93.50
55064;DHT22;40963;52.168;21.296;2023-04-29T01:32:05;5.40;93.40
55064;DHT22;40963;52.168;21.296;2023-04-29T01:45:00;5.50;93.50
55064;DHT22;40963;52.168;21.296;2023-04-29T01:47:28;5.50;93.50
55064;DHT22;40963;52.168;21.296;2023-04-29T01:49:54;5.60;93.50
55064;DHT22;40963;52.168;21.296;2023-04-29T01:52:19;5.60;93.30
55064;DHT22;40963;52.168;21.296;2023-04-29T01:54:45;5.60;93.30
55064;DHT22;40963;52.168;21.296;2023-04-29T01:57:11;5.60;93.10
55064;DHT22;40963;52.168;21.296;2023-04-29T01:59:37;5.60;93.10
55064;DHT22;40963;52.168;21.296;2023-04-29T02:02:02;5.60;92.90
55064;DHT22;40963;52.168;21.296;2023-04-29T02:04:28;5.70;92.80
55064;DHT22;40963;52.168;21.296;2023-04-29T02:06:58;5.70;92.60
55064;DHT22;40963;52.168;21.296;2023-04-29T02:09:23;5.70;92.50
55064;DHT22;40963;52.168;21.296;2023-04-29T02:11:49;5.70;92.40
55064;DHT22;40963;52.168;21.296;2023-04-29T02:14:14;5.80;92.30
55064;DHT22;40963;52.168;21.296;2023-04-29T02:16:43;5.80;92.20
55064;DHT22;40963;52.168;21.296;2023-04-29T02:19:09;5.80;92.00
55064;DHT22;40963;52.168;21.296;2023-04-29T02:21:34;5.80;91.90
55064;DHT22;40963;52.168;21.296;2023-04-29T02:24:00;5.80;91.80
55064;DHT22;40963;52.168;21.296;2023-04-29T02:26:27;5.90;91.80
55064;DHT22;40963;52.168;21.296;2023-04-29T02:28:52;5.90;91.70
55064;DHT22;40963;52.168;21.296;2023-04-29T02:31:18;5.90;91.60
55064;DHT22;40963;52.168;21.296;2023-04-29T02:33:44;5.90;91.40
55064;DHT22;40963;52.168;21.296;2023-04-29T02:36:09;5.90;91.40
55064;DHT22;40963;52.168;21.296;2023-04-29T02:38:35;5.90;91.30
55064;DHT22;40963;52.168;21.296;2023-04-29T02:41:00;5.90;91.30
55064;DHT22;40963;52.168;21.296;2023-04-29T02:43:26;6.00;91.20
55064;DHT22;40963;52.168;21.296;2023-04-29T02:45:55;6.00;91.10
55064;DHT22;40963;52.168;21.296;2023-04-29T02:48:20;6.00;91.00
55064;DHT22;40963;52.168;21.296;2023-04-29T02:50:46;6.00;91.00
55064;DHT22;40963;52.168;21.296;2023-04-29T02:53:12;6.00;90.90
55064;DHT22;40963;52.168;21.296;2023-04-29T02:55:37;6.00;90.90
55064;DHT22;40963;52.168;21.296;2023-04-29T02:58:03;6.00;90.80
55064;DHT22;40963;52.168;21.296;2023-04-29T03:00:28;6.00;90.70
55064;DHT22;40963;52.168;21.296;2023-04-29T03:02:54;6.00;90.80
55064;DHT22;40963;52.168;21.296;2023-04-29T03:05:19;6.00;90.70
55064;DHT22;40963;52.168;21.296;2023-04-29T03:07:45;6.00;90.70
55064;DHT22;40963;52.168;21.296;2023-04-29T03:10:11;6.00;90.70
55064;DHT22;40963;52.168;21.296;2023-04-29T03:12:36;6.00;90.60
55064;DHT22;40963;52.168;21.296;2023-04-29T03:15:05;6.10;90.60
55064;DHT22;40963;52.168;21.296;2023-04-29T03:17:31;6.10;90.60
55064;DHT22;40963;52.168;21.296;2023-04-29T03:19:57;6.00;90.60
55064;DHT22;40963;52.168;21.296;2023-04-29T03:22:22;6.10;90.60
55064;DHT22;40963;52.168;21.296;2023-04-29T03:24:48;6.10;90.40
55064;DHT22;40963;52.168;21.296;2023-04-29T03:27:13;6.10;90.40
55064;DHT22;40963;52.168;21.296;2023-04-29T03:29:39;6.10;90.40
55064;DHT22;40963;52.168;21.296;2023-04-29T03:32:05;6.10;90.30
55064;DHT22;40963;52.168;21.296;2023-04-29T03:34:30;6.10;90.20
55064;DHT22;40963;52.168;21.296;2023-04-29T03:36:56;6.10;90.20
55064;DHT22;40963;52.168;21.296;2023-04-29T03:39:22;6.10;90.20
55064;DHT22;40963;52.168;21.296;2023-04-29T03:41:47;6.10;90.20
55064;DHT22;40963;52.168;21.296;2023-04-29T03:44:13;6.10;90.20
55064;DHT22;40963;52.168;21.296;2023-04-29T03:46:39;6.20;90.20
55064;DHT22;40963;52.168;21.296;2023-04-29T03:49:04;6.20;90.10
55064;DHT22;40963;52.168;21.296;2023-04-29T03:51:30;6.20;90.00
55064;DHT22;40963;52.168;21.296;2023-04-29T03:53:56;6.20;90.00
55064;DHT22;40963;52.168;21.296;2023-04-29T03:56:22;6.20;90.00
55064;DHT22;40963;52.168;21.296;2023-04-29T03:58:50;6.30;90.00
55064;DHT22;40963;52.168;21.296;2023-04-29T04:01:15;6.30;90.00
55064;DHT22;40963;52.168;21.296;2023-04-29T04:03:41;6.30;90.00
55064;DHT22;40963;52.168;21.296;2023-04-29T04:06:08;6.30;89.90
55064;DHT22;40963;52.168;21.296;2023-04-29T04:08:33;6.30;89.70
55064;DHT22;40963;52.168;21.296;2023-04-29T04:10:59;6.40;89.90
55064;DHT22;40963;52.168;21.296;2023-04-29T04:13:28;6.40;89.80
55064;DHT22;40963;52.168;21.296;2023-04-29T04:15:54;6.40;89.60
55064;DHT22;40963;52.168;21.296;2023-04-29T04:18:19;6.50;89.50
55064;DHT22;40963;52.168;21.296;2023-04-29T04:20:45;6.50;89.50
55064;DHT22;40963;52.168;21.296;2023-04-29T04:23:11;6.50;89.40
55064;DHT22;40963;52.168;21.296;2023-04-29T04:25:37;6.50;89.20
55064;DHT22;40963;52.168;21.296;2023-04-29T04:28:02;6.60;89.10
55064;DHT22;40963;52.168;21.296;2023-04-29T04:30:28;6.60;89.10
55064;DHT22;40963;52.168;21.296;2023-04-29T04:32:54;6.70;89.10
55064;DHT22;40963;52.168;21.296;2023-04-29T04:35:19;6.70;89.10
55064;DHT22;40963;52.168;21.296;2023-04-29T04:37:45;6.70;89.00
55064;DHT22;40963;52.168;21.296;2023-04-29T04:40:11;6.80;88.60
55064;DHT22;40963;52.168;21.296;2023-04-29T04:42:38;6.90;88.40
55064;DHT22;40963;52.168;21.296;2023-04-29T04:45:04;6.90;88.10
55064;DHT22;40963;52.168;21.296;2023-04-29T04:47:30;7.00;88.00
55064;DHT22;40963;52.168;21.296;2023-04-29T04:49:55;7.10;88.00
55064;DHT22;40963;52.168;21.296;2023-04-29T04:52:21;7.20;87.70
55064;DHT22;40963;52.168;21.296;2023-04-29T04:54:47;7.20;87.40
55064;DHT22;40963;52.168;21.296;2023-04-29T04:57:12;7.30;87.00
55064;DHT22;40963;52.168;21.296;2023-04-29T04:59:38;7.40;86.70
55064;DHT22;40963;52.168;21.296;2023-04-29T05:02:03;7.50;86.50
55064;DHT22;40963;52.168;21.296;2023-04-29T05:04:29;7.50;85.90
55064;DHT22;40963;52.168;21.296;2023-04-29T05:06:55;7.60;85.90
55064;DHT22;40963;52.168;21.296;2023-04-29T05:09:20;7.70;85.10
55064;DHT22;40963;52.168;21.296;2023-04-29T05:11:46;7.80;84.70
55064;DHT22;40963;52.168;21.296;2023-04-29T05:14:12;7.90;84.00
55064;DHT22;40963;52.168;21.296;2023-04-29T05:16:37;7.90;83.30
55064;DHT22;40963;52.168;21.296;2023-04-29T05:19:03;8.10;82.90
55064;DHT22;40963;52.168;21.296;2023-04-29T05:21:28;8.10;82.40
55064;DHT22;40963;52.168;21.296;2023-04-29T05:23:54;8.20;82.00
55064;DHT22;40963;52.168;21.296;2023-04-29T05:26:19;8.30;81.60
55064;DHT22;40963;52.168;21.296;2023-04-29T05:28:45;8.50;81.50
55064;DHT22;40963;52.168;21.296;2023-04-29T05:31:11;8.60;80.70
55064;DHT22;40963;52.168;21.296;2023-04-29T05:33:36;8.70;80.20
55064;DHT22;40963;52.168;21.296;2023-04-29T05:36:02;8.90;80.10
55064;DHT22;40963;52.168;21.296;2023-04-29T05:38:28;9.00;79.20
55064;DHT22;40963;52.168;21.296;2023-04-29T05:40:55;9.20;78.90
55064;DHT22;40963;52.168;21.296;2023-04-29T05:43:20;9.30;78.10
55064;DHT22;40963;52.168;21.296;2023-04-29T05:45:46;9.50;77.50
55064;DHT22;40963;52.168;21.296;2023-04-29T05:48:12;9.60;76.90
55064;DHT22;40963;52.168;21.296;2023-04-29T05:50:37;9.70;76.10
55064;DHT22;40963;52.168;21.296;2023-04-29T05:53:03;9.90;75.80
55064;DHT22;40963;52.168;21.296;2023-04-29T05:55:29;10.00;75.00
55064;DHT22;40963;52.168;21.296;2023-04-29T05:57:55;10.10;74.40
55064;DHT22;40963;52.168;21.296;2023-04-29T06:00:20;10.20;74.00
55064;DHT22;40963;52.168;21.296;2023-04-29T06:02:46;10.30;73.40
55064;DHT22;40963;52.168;21.296;2023-04-29T06:05:12;10.40;72.80
55064;DHT22;40963;52.168;21.296;2023-04-29T06:07:38;10.50;72.60
55064;DHT22;40963;52.168;21.296;2023-04-29T06:10:04;10.60;72.00
55064;DHT22;40963;52.168;21.296;2023-04-29T06:12:30;10.70;71.50
55064;DHT22;40963;52.168;21.296;2023-04-29T06:14:55;10.80;71.10
55064;DHT22;40963;52.168;21.296;2023-04-29T06:17:21;10.90;70.80
55064;DHT22;40963;52.168;21.296;2023-04-29T06:19:47;10.90;70.20
55064;DHT22;40963;52.168;21.296;2023-04-29T06:22:12;11.10;70.20
55064;DHT22;40963;52.168;21.296;2023-04-29T06:24:38;11.20;70.00
55064;DHT22;40963;52.168;21.296;2023-04-29T06:27:03;11.30;69.40
55064;DHT22;40963;52.168;21.296;2023-04-29T06:29:29;11.40;69.10
55064;DHT22;40963;52.168;21.296;2023-04-29T06:31:54;11.50;68.50
55064;DHT22;40963;52.168;21.296;2023-04-29T06:34:20;11.70;68.20
55064;DHT22;40963;52.168;21.296;2023-04-29T06:36:46;11.70;67.50
55064;DHT22;40963;52.168;21.296;2023-04-29T06:39:12;11.90;67.00
55064;DHT22;40963;52.168;21.296;2023-04-29T06:41:37;12.00;66.30
55064;DHT22;40963;52.168;21.296;2023-04-29T06:44:03;12.10;65.90
55064;DHT22;40963;52.168;21.296;2023-04-29T06:46:28;12.30;65.30
55064;DHT22;40963;52.168;21.296;2023-04-29T06:48:54;12.30;65.00
55064;DHT22;40963;52.168;21.296;2023-04-29T06:51:20;12.50;64.00
55064;DHT22;40963;52.168;21.296;2023-04-29T06:53:45;12.60;63.50
55064;DHT22;40963;52.168;21.296;2023-04-29T06:56:12;12.60;63.20
55064;DHT22;40963;52.168;21.296;2023-04-29T06:58:38;12.80;62.80
55064;DHT22;40963;52.168;21.296;2023-04-29T07:01:04;12.90;62.30
55064;DHT22;40963;52.168;21.296;2023-04-29T07:03:31;13.00;62.00
55064;DHT22;40963;52.168;21.296;2023-04-29T07:05:57;13.10;62.00
55064;DHT22;40963;52.168;21.296;2023-04-29T07:08:22;13.30;62.00
55064;DHT22;40963;52.168;21.296;2023-04-29T07:10:55;13.40;61.50
55064;DHT22;40963;52.168;21.296;2023-04-29T07:13:21;13.60;60.60
55064;DHT22;40963;52.168;21.296;2023-04-29T07:15:47;13.70;60.40
55064;DHT22;40963;52.168;21.296;2023-04-29T07:18:12;13.80;60.20
55064;DHT22;40963;52.168;21.296;2023-04-29T07:20:38;14.00;59.90
55064;DHT22;40963;52.168;21.296;2023-04-29T07:23:04;14.10;59.30
55064;DHT22;40963;52.168;21.296;2023-04-29T07:25:29;14.10;58.90
55064;DHT22;40963;52.168;21.296;2023-04-29T07:27:55;14.20;58.00
55064;DHT22;40963;52.168;21.296;2023-04-29T07:30:21;14.20;57.90
55064;DHT22;40963;52.168;21.296;2023-04-29T07:32:47;14.30;57.50
55064;DHT22;40963;52.168;21.296;2023-04-29T07:35:13;14.40;57.60
55064;DHT22;40963;52.168;21.296;2023-04-29T07:37:39;14.50;57.30
55064;DHT22;40963;52.168;21.296;2023-04-29T07:40:06;14.60;57.20
55064;DHT22;40963;52.168;21.296;2023-04-29T07:42:32;14.80;57.90
55064;DHT22;40963;52.168;21.296;2023-04-29T07:44:57;15.00;58.60
55064;DHT22;40963;52.168;21.296;2023-04-29T07:47:23;15.20;58.00
55064;DHT22;40963;52.168;21.296;2023-04-29T07:49:48;15.30;57.80
55064;DHT22;40963;52.168;21.296;2023-04-29T07:52:14;15.50;58.40
55064;DHT22;40963;52.168;21.296;2023-04-29T07:54:39;15.60;58.00
55064;DHT22;40963;52.168;21.296;2023-04-29T07:57:05;15.70;57.10
55064;DHT22;40963;52.168;21.296;2023-04-29T07:59:31;15.80;56.50
55064;DHT22;40963;52.168;21.296;2023-04-29T08:01:57;15.80;56.20
55064;DHT22;40963;52.168;21.296;2023-04-29T08:04:22;15.90;56.40
55064;DHT22;40963;52.168;21.296;2023-04-29T08:06:48;16.00;56.50
55064;DHT22;40963;52.168;21.296;2023-04-29T08:09:15;16.10;56.00
55064;DHT22;40963;52.168;21.296;2023-04-29T08:11:41;16.20;55.70
55064;DHT22;40963;52.168;21.296;2023-04-29T08:14:07;16.20;55.10
55064;DHT22;40963;52.168;21.296;2023-04-29T08:16:33;16.30;55.00
55064;DHT22;40963;52.168;21.296;2023-04-29T08:18:58;16.40;55.20
55064;DHT22;40963;52.168;21.296;2023-04-29T08:21:24;16.50;54.70
55064;DHT22;40963;52.168;21.296;2023-04-29T08:23:49;16.50;54.50
55064;DHT22;40963;52.168;21.296;2023-04-29T08:26:15;16.50;54.10
55064;DHT22;40963;52.168;21.296;2023-04-29T08:28:41;16.60;53.70
55064;DHT22;40963;52.168;21.296;2023-04-29T08:31:06;16.60;53.30
55064;DHT22;40963;52.168;21.296;2023-04-29T08:33:41;16.70;53.50
55064;DHT22;40963;52.168;21.296;2023-04-29T08:36:06;16.80;53.30
55064;DHT22;40963;52.168;21.296;2023-04-29T08:38:33;16.80;52.90
55064;DHT22;40963;52.168;21.296;2023-04-29T08:40:58;16.90;52.80
55064;DHT22;40963;52.168;21.296;2023-04-29T08:43:26;17.00;52.60
55064;DHT22;40963;52.168;21.296;2023-04-29T08:45:52;17.00;52.20
55064;DHT22;40963;52.168;21.296;2023-04-29T08:48:18;16.90;52.00
55064;DHT22;40963;52.168;21.296;2023-04-29T08:50:44;16.90;52.00
55064;DHT22;40963;52.168;21.296;2023-04-29T08:53:11;16.90;52.20
55064;DHT22;40963;52.168;21.296;2023-04-29T08:55:41;16.80;52.20
55064;DHT22;40963;52.168;21.296;2023-04-29T08:58:08;16.80;52.30
55064;DHT22;40963;52.168;21.296;2023-04-29T09:00:34;16.80;52.90
55064;DHT22;40963;52.168;21.296;2023-04-29T09:03:10;16.90;53.00
55064;DHT22;40963;52.168;21.296;2023-04-29T09:05:37;17.00;52.90
55064;DHT22;40963;52.168;21.296;2023-04-29T09:08:07;17.10;53.20
55064;DHT22;40963;52.168;21.296;2023-04-29T09:10:35;17.20;52.50
55064;DHT22;40963;52.168;21.296;2023-04-29T09:13:01;17.20;52.40
55064;DHT22;40963;52.168;21.296;2023-04-29T09:15:27;17.40;52.40
55064;DHT22;40963;52.168;21.296;2023-04-29T09:17:53;17.40;52.40
55064;DHT22;40963;52.168;21.296;2023-04-29T09:23:01;17.60;51.40
55064;DHT22;40963;52.168;21.296;2023-04-29T09:25:28;17.60;51.50
55064;DHT22;40963;52.168;21.296;2023-04-29T09:27:54;17.70;51.30
55064;DHT22;40963;52.168;21.296;2023-04-29T09:30:21;17.70;51.00
55064;DHT22;40963;52.168;21.296;2023-04-29T09:33:07;17.70;50.80
55064;DHT22;40963;52.168;21.296;2023-04-29T09:35:33;17.70;50.50
55064;DHT22;40963;52.168;21.296;2023-04-29T09:38:15;17.80;50.30
55064;DHT22;40963;52.168;21.296;2023-04-29T09:40:42;17.80;50.30
55064;DHT22;40963;52.168;21.296;2023-04-29T09:43:25;17.80;50.00
55064;DHT22;40963;52.168;21.296;2023-04-29T09:45:51;17.80;49.70
55064;DHT22;40963;52.168;21.296;2023-04-29T09:48:17;17.90;50.20
55064;DHT22;40963;52.168;21.296;2023-04-29T09:50:43;17.90;50.20
55064;DHT22;40963;52.168;21.296;2023-04-29T09:53:10;18.00;50.10
55064;DHT22;40963;52.168;21.296;2023-04-29T09:55:57;18.10;49.70
55064;DHT22;40963;52.168;21.296;2023-04-29T09:58:33;18.20;49.20
55064;DHT22;40963;52.168;21.296;2023-04-29T10:01:02;18.20;49.10
55064;DHT22;40963;52.168;21.296;2023-04-29T10:03:46;18.20;48.90
55064;DHT22;40963;52.168;21.296;2023-04-29T10:06:14;18.30;48.70
55064;DHT22;40963;52.168;21.296;2023-04-29T10:08:41;18.20;48.40
55064;DHT22;40963;52.168;21.296;2023-04-29T10:11:10;18.30;48.80
55064;DHT22;40963;52.168;21.296;2023-04-29T10:13:37;18.40;48.60
55064;DHT22;40963;52.168;21.296;2023-04-29T10:16:20;18.40;48.50
55064;DHT22;40963;52.168;21.296;2023-04-29T10:18:51;18.40;48.60
55064;DHT22;40963;52.168;21.296;2023-04-29T10:21:27;18.50;48.40
55064;DHT22;40963;52.168;21.296;2023-04-29T10:23:57;18.50;48.50
55064;DHT22;40963;52.168;21.296;2023-04-29T10:26:27;18.50;48.70
55064;DHT22;40963;52.168;21.296;2023-04-29T10:28:56;18.60;48.60
55064;DHT22;40963;52.168;21.296;2023-04-29T10:31:25;18.70;48.70
55064;DHT22;40963;52.168;21.296;2023-04-29T10:33:54;18.70;48.10
55064;DHT22;40963;52.168;21.296;2023-04-29T10:36:20;18.70;48.30
55064;DHT22;40963;52.168;21.296;2023-04-29T10:38:52;18.80;48.20
55064;DHT22;40963;52.168;21.296;2023-04-29T10:41:26;18.80;48.10
55064;DHT22;40963;52.168;21.296;2023-04-29T10:43:53;19.00;48.30
55064;DHT22;40963;52.168;21.296;2023-04-29T10:46:24;19.00;47.50
55064;DHT22;40963;52.168;21.296;2023-04-29T10:48:59;19.10;47.20
55064;DHT22;40963;52.168;21.296;2023-04-29T10:51:40;19.10;47.10
55064;DHT22;40963;52.168;21.296;2023-04-29T10:54:12;19.10;47.40
55064;DHT22;40963;52.168;21.296;2023-04-29T10:56:52;19.20;47.10
55064;DHT22;40963;52.168;21.296;2023-04-29T11:02:06;19.20;46.70
55064;DHT22;40963;52.168;21.296;2023-04-29T11:04:34;19.10;46.80
55064;DHT22;40963;52.168;21.296;2023-04-29T11:06:59;19.10;46.70
55064;DHT22;40963;52.168;21.296;2023-04-29T11:09:30;19.20;47.00
55064;DHT22;40963;52.168;21.296;2023-04-29T11:12:04;19.30;47.20
55064;DHT22;40963;52.168;21.296;2023-04-29T11:14:35;19.40;47.00
55064;DHT22;40963;52.168;21.296;2023-04-29T11:17:03;19.40;46.40
55064;DHT22;40963;52.168;21.296;2023-04-29T11:19:33;19.40;46.60
55064;DHT22;40963;52.168;21.296;2023-04-29T11:22:08;19.40;46.70
55064;DHT22;40963;52.168;21.296;2023-04-29T11:24:34;19.40;46.60
55064;DHT22;40963;52.168;21.296;2023-04-29T11:27:02;19.40;46.50
55064;DHT22;40963;52.168;21.296;2023-04-29T11:29:30;19.50;46.90
55064;DHT22;40963;52.168;21.296;2023-04-29T11:32:00;19.60;47.10
55064;DHT22;40963;52.168;21.296;2023-04-29T11:34:26;19.60;46.80
55064;DHT22;40963;52.168;21.296;2023-04-29T11:36:52;19.70;46.50
55064;DHT22;40963;52.168;21.296;2023-04-29T11:39:18;19.70;46.30
55064;DHT22;40963;52.168;21.296;2023-04-29T11:41:43;19.70;46.40
55064;DHT22;40963;52.168;21.296;2023-04-29T11:44:10;19.80;46.70
55064;DHT22;40963;52.168;21.296;2023-04-29T11:46:36;19.80;46.70
55064;DHT22;40963;52.168;21.296;2023-04-29T11:49:02;19.90;46.60
55064;DHT22;40963;52.168;21.296;2023-04-29T11:51:28;19.90;46.70
55064;DHT22;40963;52.168;21.296;2023-04-29T11:53:54;20.00;46.80
55064;DHT22;40963;52.168;21.296;2023-04-29T11:56:23;20.00;46.40
55064;DHT22;40963;52.168;21.296;2023-04-29T11:58:56;20.00;45.90
55064;DHT22;40963;52.168;21.296;2023-04-29T12:01:22;20.10;45.70
55064;DHT22;40963;52.168;21.296;2023-04-29T12:03:49;20.10;45.60
55064;DHT22;40963;52.168;21.296;2023-04-29T12:06:15;19.90;45.60
55064;DHT22;40963;52.168;21.296;2023-04-29T12:08:40;19.70;45.50
55064;DHT22;40963;52.168;21.296;2023-04-29T12:11:06;19.60;46.20
55064;DHT22;40963;52.168;21.296;2023-04-29T12:13:33;19.40;46.60
55064;DHT22;40963;52.168;21.296;2023-04-29T12:16:02;19.40;46.70
55064;DHT22;40963;52.168;21.296;2023-04-29T12:18:28;19.40;46.90
55064;DHT22;40963;52.168;21.296;2023-04-29T12:20:55;19.40;47.00
55064;DHT22;40963;52.168;21.296;2023-04-29T12:23:22;19.40;46.90
55064;DHT22;40963;52.168;21.296;2023-04-29T12:25:57;19.40;46.40
55064;DHT22;40963;52.168;21.296;2023-04-29T12:28:23;19.40;46.60
55064;DHT22;40963;52.168;21.296;2023-04-29T12:30:51;19.20;46.40
55064;DHT22;40963;52.168;21.296;2023-04-29T12:33:22;19.10;46.70
55064;DHT22;40963;52.168;21.296;2023-04-29T12:35:50;19.20;47.20
55064;DHT22;40963;52.168;21.296;2023-04-29T12:38:26;19.20;47.30
55064;DHT22;40963;52.168;21.296;2023-04-29T12:40:53;19.30;47.00
55064;DHT22;40963;52.168;21.296;2023-04-29T12:43:19;19.20;47.00
55064;DHT22;40963;52.168;21.296;2023-04-29T12:45:44;19.20;47.20
55064;DHT22;40963;52.168;21.296;2023-04-29T12:48:11;19.20;47.70
55064;DHT22;40963;52.168;21.296;2023-04-29T12:50:38;19.30;47.90
55064;DHT22;40963;52.168;21.296;2023-04-29T12:53:05;19.30;47.60
55064;DHT22;40963;52.168;21.296;2023-04-29T12:55:32;19.30;47.40
55064;DHT22;40963;52.168;21.296;2023-04-29T12:57:59;19.30;47.30
55064;DHT22;40963;52.168;21.296;2023-04-29T13:00:24;19.20;47.30
55064;DHT22;40963;52.168;21.296;2023-04-29T13:02:50;19.20;47.80
55064;DHT22;40963;52.168;21.296;2023-04-29T13:05:16;19.20;48.10
55064;DHT22;40963;52.168;21.296;2023-04-29T13:07:41;19.10;47.90
55064;DHT22;40963;52.168;21.296;2023-04-29T13:10:07;19.10;48.30
55064;DHT22;40963;52.168;21.296;2023-04-29T13:12:33;19.10;48.50
55064;DHT22;40963;52.168;21.296;2023-04-29T13:14:59;19.20;48.40
55064;DHT22;40963;52.168;21.296;2023-04-29T13:17:24;19.30;48.30
55064;DHT22;40963;52.168;21.296;2023-04-29T13:19:50;19.30;47.80
55064;DHT22;40963;52.168;21.296;2023-04-29T13:22:16;19.40;48.00
55064;DHT22;40963;52.168;21.296;2023-04-29T13:24:42;19.40;47.70
55064;DHT22;40963;52.168;21.296;2023-04-29T13:27:07;19.50;47.80
55064;DHT22;40963;52.168;21.296;2023-04-29T13:29:33;19.60;47.60
55064;DHT22;40963;52.168;21.296;2023-04-29T13:31:59;19.70;47.40
55064;DHT22;40963;52.168;21.296;2023-04-29T13:34:24;19.70;47.10
55064;DHT22;40963;52.168;21.296;2023-04-29T13:36:50;19.60;47.10
55064;DHT22;40963;52.168;21.296;2023-04-29T13:39:15;19.60;47.00
55064;DHT22;40963;52.168;21.296;2023-04-29T13:41:41;19.40;47.20
55064;DHT22;40963;52.168;21.296;2023-04-29T13:44:07;19.30;47.40
55064;DHT22;40963;52.168;21.296;2023-04-29T13:46:33;19.20;47.70
55064;DHT22;40963;52.168;21.296;2023-04-29T13:48:58;19.10;48.10
55064;DHT22;40963;52.168;21.296;2023-04-29T13:51:24;19.10;48.50
55064;DHT22;40963;52.168;21.296;2023-04-29T13:53:50;19.00;48.70
55064;DHT22;40963;52.168;21.296;2023-04-29T13:56:15;18.90;49.00
55064;DHT22;40963;52.168;21.296;2023-04-29T13:58:41;18.90;49.60
55064;DHT22;40963;52.168;21.296;2023-04-29T14:01:07;18.80;49.70
55064;DHT22;40963;52.168;21.296;2023-04-29T14:03:33;18.80;50.20
55064;DHT22;40963;52.168;21.296;2023-04-29T14:05:58;18.80;50.40
55064;DHT22;40963;52.168;21.296;2023-04-29T14:08:24;18.70;50.50
55064;DHT22;40963;52.168;21.296;2023-04-29T14:10:49;18.60;50.40
55064;DHT22;40963;52.168;21.296;2023-04-29T14:13:15;18.60;50.50
55064;DHT22;40963;52.168;21.296;2023-04-29T14:15:42;18.50;50.80
55064;DHT22;40963;52.168;21.296;2023-04-29T14:18:07;18.50;50.80
55064;DHT22;40963;52.168;21.296;2023-04-29T14:20:34;18.40;51.10
55064;DHT22;40963;52.168;21.296;2023-04-29T14:23:00;18.40;51.10
55064;DHT22;40963;52.168;21.296;2023-04-29T14:25:26;18.40;51.20
55064;DHT22;40963;52.168;21.296;2023-04-29T14:27:52;18.40;51.10
55064;DHT22;40963;52.168;21.296;2023-04-29T14:30:17;18.30;51.00
55064;DHT22;40963;52.168;21.296;2023-04-29T14:32:43;18.30;50.90
55064;DHT22;40963;52.168;21.296;2023-04-29T14:35:09;18.30;50.90
55064;DHT22;40963;52.168;21.296;2023-04-29T14:37:34;18.20;51.00
55064;DHT22;40963;52.168;21.296;2023-04-29T14:40:00;18.20;51.00
55064;DHT22;40963;52.168;21.296;2023-04-29T14:42:26;18.10;50.80
55064;DHT22;40963;52.168;21.296;2023-04-29T14:44:51;18.10;51.00
55064;DHT22;40963;52.168;21.296;2023-04-29T14:47:18;18.10;51.30
55064;DHT22;40963;52.168;21.296;2023-04-29T14:49:44;18.10;51.20
55064;DHT22;40963;52.168;21.296;2023-04-29T14:52:09;18.20;51.10
55064;DHT22;40963;52.168;21.296;2023-04-29T14:54:35;18.10;51.20
55064;DHT22;40963;52.168;21.296;2023-04-29T14:57:01;18.10;51.40
55064;DHT22;40963;52.168;21.296;2023-04-29T14:59:26;18.10;51.60
55064;DHT22;40963;52.168;21.296;2023-04-29T15:01:54;18.10;51.70
55064;DHT22;40963;52.168;21.296;2023-04-29T15:04:20;18.10;51.90
55064;DHT22;40963;52.168;21.296;2023-04-29T15:06:47;18.10;52.00
55064;DHT22;40963;52.168;21.296;2023-04-29T15:09:13;18.00;52.20
55064;DHT22;40963;52.168;21.296;2023-04-29T15:11:38;18.00;52.10
55064;DHT22;40963;52.168;21.296;2023-04-29T15:14:05;18.00;52.30
55064;DHT22;40963;52.168;21.296;2023-04-29T15:16:31;18.00;52.40
55064;DHT22;40963;52.168;21.296;2023-04-29T15:18:56;17.90;52.50
55064;DHT22;40963;52.168;21.296;2023-04-29T15:21:22;17.90;52.90
55064;DHT22;40963;52.168;21.296;2023-04-29T15:23:47;17.90;52.80
55064;DHT22;40963;52.168;21.296;2023-04-29T15:26:13;17.80;52.80
55064;DHT22;40963;52.168;21.296;2023-04-29T15:28:39;17.80;52.90
55064;DHT22;40963;52.168;21.296;2023-04-29T15:31:04;17.80;53.30
55064;DHT22;40963;52.168;21.296;2023-04-29T15:33:30;17.80;53.40
55064;DHT22;40963;52.168;21.296;2023-04-29T15:35:57;17.80;53.40
55064;DHT22;40963;52.168;21.296;2023-04-29T15:38:22;17.80;53.60